createdAt,value
2023-05-23T04:50:18.557Z,5.17
2023-05-23T04:55:21.603Z,4.40
2023-05-23T05:00:24.621Z,4.90
2023-05-23T05:05:27.520Z,4.50
2023-05-23T05:10:30.475Z,4.17
2023-05-23T05:15:33.650Z,4.90
2023-05-23T05:20:36.474Z,5.10
2023-05-23T05:25:41.279Z,4.37
2023-05-23T05:30:46.300Z,4.07
2023-05-23T05:35:49.664Z,4.77
2023-05-23T05:40:52.518Z,3.80
2023-05-23T05:45:55.428Z,3.60
2023-05-23T05:51:01.164Z,4.53
2023-05-23T05:56:04.271Z,4.33
2023-05-23T06:01:07.118Z,4.40
2023-05-23T06:06:10.371Z,3.90
2023-05-23T06:11:13.272Z,4.50
2023-05-23T06:16:16.181Z,3.67
2023-05-23T06:21:19.016Z,3.63
2023-05-23T06:26:21.837Z,3.53
2023-05-23T06:31:24.750Z,3.57
2023-05-23T06:36:27.601Z,3.23
2023-05-23T06:41:30.471Z,4.33
2023-05-23T06:46:33.669Z,3.27
2023-05-23T06:51:36.592Z,4.10
2023-05-23T06:56:39.409Z,3.13
2023-05-23T07:01:42.296Z,3.57
2023-05-23T07:06:46.379Z,3.93
2023-05-23T07:11:49.198Z,3.60
2023-05-23T07:16:52.110Z,3.87
2023-05-23T07:21:54.995Z,3.90
2023-05-23T07:26:57.819Z,2.40
2023-05-23T07:32:00.622Z,3.47
2023-05-23T07:37:03.503Z,4.07
2023-05-23T07:42:06.412Z,2.70
2023-05-23T07:47:09.229Z,4.60
2023-05-23T07:52:12.121Z,3.15
2023-05-23T07:57:16.665Z,2.67
2023-05-23T08:02:19.812Z,3.95
2023-05-23T08:07:22.918Z,4.28
2023-05-23T08:12:25.910Z,2.42
2023-05-23T08:17:28.879Z,3.85
2023-05-23T08:22:31.885Z,3.75
2023-05-23T08:27:36.074Z,3.30
2023-05-23T08:32:38.917Z,3.42
2023-05-23T08:37:42.039Z,1.95
2023-05-23T08:42:45.042Z,2.10
2023-05-23T08:47:48.193Z,2.22
2023-05-23T08:52:58.844Z,3.55
2023-05-23T08:58:01.755Z,3.00
2023-05-23T09:03:04.779Z,3.08
2023-05-23T09:08:07.632Z,3.15
2023-05-23T09:13:10.512Z,2.50
2023-05-23T09:18:14.463Z,3.63
2023-05-23T09:23:17.542Z,3.00
2023-05-23T09:28:20.367Z,2.30
2023-05-23T09:33:23.306Z,2.92
2023-05-23T09:38:26.389Z,3.20
2023-05-23T09:43:29.768Z,2.88
2023-05-23T09:48:33.611Z,3.10
2023-05-23T09:53:36.616Z,2.80
2023-05-23T09:58:40.394Z,1.55
2023-05-23T10:03:49.958Z,2.38
2023-05-23T10:09:06.383Z,2.85
2023-05-23T10:14:13.255Z,1.42
2023-05-23T10:19:27.443Z,3.00
2023-05-23T10:24:30.719Z,2.53
2023-05-23T10:29:35.423Z,2.92
2023-05-23T10:34:51.020Z,2.20
2023-05-23T10:40:01.575Z,1.83
2023-05-23T10:45:24.363Z,2.30
2023-05-23T10:50:35.557Z,2.70
2023-05-23T10:55:38.619Z,2.65
2023-05-23T11:00:55.198Z,3.00
2023-05-23T11:05:58.096Z,2.55
2023-05-23T11:11:02.728Z,3.13
2023-05-23T11:16:51.037Z,1.55
2023-05-23T11:22:02.281Z,1.95
2023-05-23T11:27:05.370Z,2.00
2023-05-23T11:32:17.335Z,2.13
2023-05-23T11:37:25.372Z,2.38
2023-05-23T11:42:29.591Z,2.97
2023-05-23T11:47:32.447Z,2.45
2023-05-23T11:52:35.475Z,2.67
2023-05-23T11:57:41.531Z,2.50
2023-05-23T12:02:45.371Z,2.42
2023-05-23T12:07:49.458Z,2.35
2023-05-23T12:12:52.564Z,2.50
2023-05-23T12:17:57.092Z,2.55
2023-05-23T12:23:34.914Z,2.13
2023-05-23T12:28:45.023Z,3.38
2023-05-23T12:33:49.098Z,4.13
2023-05-23T12:38:53.434Z,3.53
2023-05-23T12:43:56.966Z,3.72
2023-05-23T12:48:59.965Z,4.03
2023-05-23T12:54:03.031Z,4.63
2023-05-23T12:59:07.946Z,4.70
2023-05-23T13:04:11.097Z,3.27
2023-05-23T13:09:14.070Z,3.60
2023-05-23T13:14:17.000Z,5.60
2023-05-23T13:19:19.964Z,5.53
2023-05-23T13:24:22.873Z,3.60
2023-05-23T13:29:25.842Z,3.50
2023-05-23T13:34:28.846Z,3.23
2023-05-23T13:39:31.776Z,3.07
2023-05-23T13:44:34.703Z,3.20
2023-05-23T13:49:37.622Z,3.60
2023-05-23T13:54:41.473Z,3.27
2023-05-23T13:59:44.356Z,3.37
2023-05-23T14:04:47.231Z,3.27
2023-05-23T14:09:50.476Z,3.63
2023-05-23T14:14:53.489Z,3.63
2023-05-23T14:19:56.458Z,4.00
2023-05-23T14:24:59.469Z,4.63
2023-05-23T14:30:02.786Z,4.43
2023-05-23T14:35:11.851Z,4.40
2023-05-23T14:40:16.373Z,4.57
2023-05-23T14:45:19.430Z,4.70
2023-05-23T14:50:22.460Z,4.50
2023-05-23T14:55:25.518Z,4.95
2023-05-23T15:00:28.510Z,4.35
2023-05-23T15:05:31.363Z,5.00
2023-05-23T15:10:34.289Z,4.82
2023-05-23T15:15:37.759Z,4.73
2023-05-23T15:20:40.776Z,4.50
2023-05-23T15:25:48.997Z,4.57
2023-05-23T15:30:53.708Z,5.50
2023-05-23T15:35:58.891Z,5.13
2023-05-23T15:41:02.448Z,4.80
2023-05-23T15:46:08.653Z,5.10
2023-05-23T15:51:12.327Z,4.75
2023-05-23T15:56:15.927Z,4.55
2023-05-23T16:01:18.882Z,4.50
2023-05-23T16:06:22.818Z,5.43
2023-05-23T16:11:25.676Z,4.43
2023-05-23T16:16:28.952Z,4.50
2023-05-23T16:21:32.269Z,4.63
2023-05-23T16:26:35.398Z,4.18
2023-05-23T16:31:38.718Z,4.60
2023-05-23T16:36:41.939Z,4.90
2023-05-23T16:41:44.948Z,4.70
2023-05-23T16:46:48.090Z,6.27
2023-05-23T16:51:51.194Z,5.35
2023-05-23T16:56:54.046Z,4.63
2023-05-23T17:01:57.437Z,6.90
2023-05-23T17:07:00.618Z,6.20
2023-05-23T17:12:03.943Z,6.00
2023-05-23T17:17:07.389Z,6.83
2023-05-23T17:22:10.285Z,5.03
2023-05-23T17:27:13.445Z,5.23
2023-05-23T17:32:16.614Z,6.53
2023-05-23T17:37:20.063Z,7.10
2023-05-23T17:42:23.341Z,6.75
2023-05-23T17:47:27.244Z,5.80
2023-05-23T17:52:31.124Z,8.70
2023-05-23T17:57:34.489Z,10.47
2023-05-23T18:02:37.440Z,10.23
2023-05-23T18:07:41.073Z,10.63
2023-05-23T18:12:44.315Z,11.27
2023-05-23T18:17:47.951Z,10.07
2023-05-23T18:22:53.757Z,8.70
2023-05-23T18:28:01.777Z,8.17
2023-05-23T18:33:05.469Z,7.38
2023-05-23T18:38:08.451Z,7.37
2023-05-23T18:43:13.508Z,6.30
2023-05-23T18:48:16.761Z,6.83
2023-05-23T18:53:20.448Z,6.93
2023-05-23T18:58:24.165Z,6.03
2023-05-23T19:03:28.029Z,4.83
2023-05-23T19:08:32.272Z,5.77
2023-05-23T19:13:35.130Z,5.13
2023-05-23T19:18:38.008Z,4.83
2023-05-23T19:23:41.210Z,5.70
2023-05-23T19:28:44.366Z,5.57
2023-05-23T19:33:47.508Z,6.07
2023-05-23T19:38:51.906Z,6.23
2023-05-23T19:43:55.063Z,6.80
2023-05-23T19:48:57.981Z,7.67
2023-05-23T19:54:01.359Z,8.17
2023-05-23T19:59:04.538Z,7.90
2023-05-23T20:04:10.073Z,8.07
2023-05-23T20:09:13.388Z,8.47
2023-05-23T20:14:17.099Z,7.23
2023-05-23T20:19:20.468Z,9.13
2023-05-23T20:24:24.129Z,8.27
2023-05-23T20:29:27.052Z,9.13
2023-05-23T20:34:30.054Z,9.50
2023-05-23T20:39:33.546Z,9.67
2023-05-23T20:44:37.882Z,10.57
2023-05-23T20:49:42.351Z,10.00
2023-05-23T20:54:48.102Z,9.50
2023-05-23T20:59:52.698Z,9.17
2023-05-23T21:04:55.544Z,8.53
2023-05-23T21:09:58.408Z,9.40
2023-05-23T21:15:01.294Z,10.83
2023-05-23T21:20:05.597Z,9.60
2023-05-23T21:25:08.790Z,9.73
2023-05-23T21:30:12.500Z,9.33
2023-05-23T21:35:15.412Z,9.70
2023-05-23T21:40:18.378Z,8.77
2023-05-23T21:45:21.399Z,8.73
2023-05-23T21:50:24.236Z,8.97
2023-05-23T21:55:27.446Z,9.17
2023-05-23T22:00:31.111Z,8.93
2023-05-23T22:05:33.978Z,8.63
2023-05-23T22:10:37.080Z,9.47
2023-05-23T22:15:40.185Z,8.47
2023-05-23T22:20:43.312Z,9.50
2023-05-23T22:25:46.596Z,8.80
2023-05-23T22:30:49.421Z,8.63
2023-05-23T22:35:52.315Z,8.67
2023-05-23T22:40:55.148Z,8.37
2023-05-23T22:45:58.042Z,9.20
2023-05-23T22:51:05.535Z,8.30
2023-05-23T22:56:08.382Z,8.30
2023-05-23T23:01:11.309Z,8.47
2023-05-23T23:06:14.200Z,8.73
2023-05-23T23:11:17.063Z,8.57
2023-05-23T23:16:21.169Z,8.97
2023-05-23T23:21:24.325Z,8.93
2023-05-23T23:26:27.797Z,8.17
2023-05-23T23:31:30.894Z,8.80
2023-05-23T23:36:33.804Z,8.87
2023-05-23T23:41:36.638Z,9.57
